Lazear, Colorado
Current Conditions -  °F | °C
As of 1:55 PM on Friday 31 Oct 2014 (Local Time) from KAJZ Reporting Station
Clear Clear  
Wind Chill: 62°   Ceiling: Unl
Heat Index: 62°   Visibility: 10mi
Dew Point: 27°   Wind: 5mph
Humidity: 27%   Direction: 110°ESE
Pressure: 30.14"   Gusts: NA
Location:  38.78°N, 107.78°W
Report Text: KAJZ 311955Z AUTO 11004KT 10SM CLR 17/M03 A3014 RMK AO2 T01661027
Loading
Personal Weather Stations






























Interactive Weather Map
Tropical Storm Tracking
New forecast layout! Learn more

10-Day Weather Forecast

Advertisements
Track Severe Weather on mobile